Time;durP1;ratioP1;P1;durP2;ratioP2;P2;SDS_P1;SDS_P2;PMS_P1;PMS_P2;Temp;Humidity;BMP_temperature;BMP_pressure;BME280_temperature;BME280_humidity;BME280_pressure;Samples;Min_cycle;Max_cycle;Signal;HPM_P1;HPM_P2
2023/02/26 00:02:24;;;;;;;22.50;20.98;;;;;;;;;;5140886;27;20199;-85
2023/02/26 00:04:51;;;;;;;22.77;21.45;;;;;;;;;;5139325;27;20229;-83
2023/02/26 00:07:18;;;;;;;21.25;20.02;;;;;;;;;;5141219;27;20206;-84
2023/02/26 00:09:45;;;;;;;22.10;20.38;;;;;;;;;;5140633;27;20204;-84
2023/02/26 00:12:12;;;;;;;21.58;20.35;;;;;;;;;;5140590;27;20198;-85
2023/02/26 00:14:41;;;;;;;22.02;20.77;;;;;;;;;;5142233;27;20590;-85
2023/02/26 00:17:21;;;;;;;22.23;20.75;;;;;;;;;;5142119;27;20553;-85
2023/02/26 00:19:48;;;;;;;21.10;20.00;;;;;;;;;;5143999;27;20208;-85
2023/02/26 00:22:16;;;;;;;21.40;20.10;;;;;;;;;;5143450;27;20207;-85
2023/02/26 00:24:43;;;;;;;22.42;21.02;;;;;;;;;;5142810;27;20214;-85
2023/02/26 00:27:11;;;;;;;22.15;20.92;;;;;;;;;;5142148;27;20197;-85
2023/02/26 00:29:38;;;;;;;21.85;20.55;;;;;;;;;;5143514;27;20200;-85
2023/02/26 00:32:07;;;;;;;21.23;19.92;;;;;;;;;;5141796;27;20277;-85
2023/02/26 00:34:34;;;;;;;21.55;20.27;;;;;;;;;;5142761;27;20199;-85
2023/02/26 00:37:06;;;;;;;21.95;20.55;;;;;;;;;;5142150;27;20225;-84
2023/02/26 00:39:38;;;;;;;22.17;20.83;;;;;;;;;;5142181;27;20736;-84
2023/02/26 00:42:05;;;;;;;21.30;19.75;;;;;;;;;;5141521;27;20209;-84
2023/02/26 00:44:33;;;;;;;21.10;19.63;;;;;;;;;;5141869;27;20623;-85
2023/02/26 00:47:01;;;;;;;20.33;19.23;;;;;;;;;;5141367;27;20259;-84
2023/02/26 00:49:36;;;;;;;21.45;20.05;;;;;;;;;;5141488;27;20192;-84
2023/02/26 00:52:05;;;;;;;21.60;20.20;;;;;;;;;;5140912;27;20191;-85
2023/02/26 00:54:32;;;;;;;20.30;19.20;;;;;;;;;;5141903;27;20222;-85
2023/02/26 00:57:00;;;;;;;20.30;19.00;;;;;;;;;;5141137;27;20271;-85
2023/02/26 00:59:27;;;;;;;20.65;19.35;;;;;;;;;;5141974;27;20206;-84
2023/02/26 01:01:54;;;;;;;20.70;19.40;;;;;;;;;;5140768;27;20344;-84
2023/02/26 01:04:22;;;;;;;22.23;20.67;;;;;;;;;;5141126;27;20346;-85
2023/02/26 01:06:52;;;;;;;21.70;20.50;;;;;;;;;;5141115;27;20217;-84
2023/02/26 01:09:24;;;;;;;21.60;20.40;;;;;;;;;;5140450;27;20202;-84
2023/02/26 01:11:51;;;;;;;20.58;19.48;;;;;;;;;;5140224;27;20190;-84
2023/02/26 01:14:19;;;;;;;21.48;20.10;;;;;;;;;;5140481;27;20201;-84
2023/02/26 01:16:51;;;;;;;21.48;20.27;;;;;;;;;;5139903;27;20224;-84
2023/02/26 01:19:20;;;;;;;22.30;20.60;;;;;;;;;;5141290;27;20212;-84
2023/02/26 01:21:51;;;;;;;21.15;19.98;;;;;;;;;;5140190;27;20216;-84
2023/02/26 01:24:20;;;;;;;22.42;21.00;;;;;;;;;;5141096;27;20231;-84
2023/02/26 01:26:48;;;;;;;21.23;19.90;;;;;;;;;;5140965;27;20261;-85
2023/02/26 01:29:16;;;;;;;20.90;19.70;;;;;;;;;;5139986;27;20202;-84
2023/02/26 01:31:46;;;;;;;21.08;19.92;;;;;;;;;;5139683;27;20214;-84
2023/02/26 01:34:16;;;;;;;21.85;20.65;;;;;;;;;;5141424;27;20258;-84
2023/02/26 01:36:45;;;;;;;20.70;19.60;;;;;;;;;;5139915;27;20232;-84
2023/02/26 01:39:16;;;;;;;22.30;20.70;;;;;;;;;;5140546;27;20251;-84
2023/02/26 01:41:47;;;;;;;21.00;19.90;;;;;;;;;;5140090;27;20727;-85
2023/02/26 01:44:24;;;;;;;22.38;20.80;;;;;;;;;;5141365;27;20618;-85
2023/02/26 01:47:00;;;;;;;21.15;19.90;;;;;;;;;;5140868;27;20582;-85
2023/02/26 01:49:27;;;;;;;21.95;20.65;;;;;;;;;;5140684;27;20292;-85
2023/02/26 01:51:55;;;;;;;21.23;20.02;;;;;;;;;;5139952;27;20542;-84
2023/02/26 01:54:24;;;;;;;21.90;20.58;;;;;;;;;;5140531;27;20223;-84
2023/02/26 01:56:53;;;;;;;20.75;19.52;;;;;;;;;;5140469;27;20227;-84
2023/02/26 01:59:23;;;;;;;20.35;19.35;;;;;;;;;;5140574;27;20215;-84
2023/02/26 02:01:50;;;;;;;21.42;20.23;;;;;;;;;;5140566;27;20201;-84
2023/02/26 02:04:18;;;;;;;21.13;19.83;;;;;;;;;;5141017;27;20227;-84
2023/02/26 02:06:45;;;;;;;20.88;19.75;;;;;;;;;;5140513;27;20224;-89
2023/02/26 02:09:12;;;;;;;20.80;19.63;;;;;;;;;;5140910;27;20715;-84
2023/02/26 02:11:48;;;;;;;21.95;20.65;;;;;;;;;;5139728;27;20259;-84
2023/02/26 02:14:20;;;;;;;21.90;20.70;;;;;;;;;;5140934;27;20201;-84
2023/02/26 02:16:49;;;;;;;22.30;20.67;;;;;;;;;;5140422;27;20224;-84
2023/02/26 02:19:26;;;;;;;21.02;19.83;;;;;;;;;;5140775;27;20255;-84
2023/02/26 02:21:58;;;;;;;21.77;20.52;;;;;;;;;;5138662;27;20228;-84
2023/02/26 02:24:32;;;;;;;22.13;20.63;;;;;;;;;;5141166;27;20264;-84
2023/02/26 02:27:03;;;;;;;21.20;19.98;;;;;;;;;;5140267;28;20295;-84
2023/02/26 02:29:51;;;;;;;21.45;20.30;;;;;;;;;;5147537;27;20197;-84
2023/02/26 02:32:22;;;;;;;21.63;20.42;;;;;;;;;;5146708;27;20202;-84
2023/02/26 02:34:51;;;;;;;21.42;20.23;;;;;;;;;;5147223;27;20236;-85
2023/02/26 02:37:21;;;;;;;20.83;19.63;;;;;;;;;;5147799;27;20199;-84
2023/02/26 02:39:52;;;;;;;22.38;20.90;;;;;;;;;;5147188;27;20618;-84
2023/02/26 02:42:22;;;;;;;22.08;20.77;;;;;;;;;;5146835;27;20213;-84
2023/02/26 02:44:52;;;;;;;21.58;20.27;;;;;;;;;;5147723;27;20270;-84
2023/02/26 02:47:22;;;;;;;20.40;19.30;;;;;;;;;;5147812;27;20213;-84
2023/02/26 02:49:52;;;;;;;21.27;19.77;;;;;;;;;;5147563;27;20259;-84
2023/02/26 02:52:21;;;;;;;22.23;20.92;;;;;;;;;;5147177;27;20597;-84
2023/02/26 02:54:51;;;;;;;21.70;20.42;;;;;;;;;;5146749;27;20722;-84
2023/02/26 02:57:20;;;;;;;21.02;19.73;;;;;;;;;;5146660;27;20203;-84
2023/02/26 02:59:49;;;;;;;21.60;20.10;;;;;;;;;;5147701;27;20199;-84
2023/02/26 03:02:18;;;;;;;21.52;20.08;;;;;;;;;;5146564;27;20220;-84
2023/02/26 03:04:53;;;;;;;22.05;20.23;;;;;;;;;;5147372;27;20226;-84
2023/02/26 03:07:20;;;;;;;20.90;19.70;;;;;;;;;;5146645;27;20210;-84
2023/02/26 03:09:47;;;;;;;21.15;19.88;;;;;;;;;;5147723;27;20249;-84
2023/02/26 03:12:14;;;;;;;20.98;19.52;;;;;;;;;;5146752;27;20205;-84
2023/02/26 03:14:42;;;;;;;21.20;19.90;;;;;;;;;;5147790;27;20182;-84
2023/02/26 03:17:15;;;;;;;21.30;20.02;;;;;;;;;;5147451;27;20205;-84
2023/02/26 03:19:49;;;;;;;21.73;20.33;;;;;;;;;;5146959;27;20214;-84
2023/02/26 03:22:19;;;;;;;21.33;20.13;;;;;;;;;;5146867;27;20240;-84
2023/02/26 03:24:48;;;;;;;20.80;19.75;;;;;;;;;;5147655;27;20225;-85
2023/02/26 03:27:18;;;;;;;20.92;19.73;;;;;;;;;;5147231;27;20209;-84
2023/02/26 03:29:51;;;;;;;20.98;19.75;;;;;;;;;;5147376;27;20208;-84
2023/02/26 03:32:20;;;;;;;22.10;20.80;;;;;;;;;;5145884;27;20211;-84
2023/02/26 03:34:49;;;;;;;21.55;20.15;;;;;;;;;;5147569;27;20244;-86
2023/02/26 03:37:20;;;;;;;21.38;20.13;;;;;;;;;;5147219;27;20649;-84
2023/02/26 03:39:50;;;;;;;21.58;20.38;;;;;;;;;;5144923;27;20191;-84
2023/02/26 03:42:20;;;;;;;20.52;19.23;;;;;;;;;;5142497;27;20255;-84
2023/02/26 03:44:49;;;;;;;21.02;19.92;;;;;;;;;;5143419;27;20215;-85
2023/02/26 03:47:16;;;;;;;22.38;20.73;;;;;;;;;;5143309;27;20259;-85
2023/02/26 03:49:46;;;;;;;20.42;19.42;;;;;;;;;;5143628;27;20604;-84
2023/02/26 03:52:14;;;;;;;20.77;19.48;;;;;;;;;;5143423;27;20217;-84
2023/02/26 03:54:44;;;;;;;20.50;19.30;;;;;;;;;;5142978;27;20257;-83
2023/02/26 03:57:11;;;;;;;22.30;20.25;;;;;;;;;;5142545;27;20207;-84
2023/02/26 03:59:38;;;;;;;20.42;19.20;;;;;;;;;;5143138;27;20269;-85
2023/02/26 04:02:06;;;;;;;20.73;19.63;;;;;;;;;;5142555;27;20214;-84
2023/02/26 04:04:35;;;;;;;21.77;20.48;;;;;;;;;;5142208;27;20213;-84
2023/02/26 04:07:02;;;;;;;21.67;20.52;;;;;;;;;;5142297;27;20225;-84
2023/02/26 04:09:30;;;;;;;21.25;20.05;;;;;;;;;;5142531;27;20207;-85
2023/02/26 04:11:58;;;;;;;20.98;19.77;;;;;;;;;;5142108;27;20206;-85
2023/02/26 04:14:25;;;;;;;20.70;19.50;;;;;;;;;;5142980;27;20235;-84
2023/02/26 04:16:52;;;;;;;20.52;19.30;;;;;;;;;;5141999;27;20213;-85
2023/02/26 04:19:19;;;;;;;20.83;19.73;;;;;;;;;;5142731;27;20258;-85
2023/02/26 04:21:46;;;;;;;21.05;19.75;;;;;;;;;;5142104;27;20600;-85
2023/02/26 04:24:13;;;;;;;24.83;23.33;;;;;;;;;;5142916;27;20201;-85
2023/02/26 04:26:40;;;;;;;21.20;20.00;;;;;;;;;;5142462;27;20636;-84
2023/02/26 04:29:09;;;;;;;20.45;19.45;;;;;;;;;;5143278;27;20201;-84
2023/02/26 04:31:36;;;;;;;21.15;19.95;;;;;;;;;;5142595;27;20248;-85
2023/02/26 04:34:03;;;;;;;21.33;20.13;;;;;;;;;;5143133;27;20611;-85
2023/02/26 04:36:30;;;;;;;20.80;19.40;;;;;;;;;;5143130;27;20222;-85
2023/02/26 04:38:57;;;;;;;22.20;20.15;;;;;;;;;;5142845;27;20707;-85
2023/02/26 04:41:24;;;;;;;21.00;19.40;;;;;;;;;;5141774;27;20206;-86
2023/02/26 04:43:51;;;;;;;21.33;20.25;;;;;;;;;;5143471;27;20258;-84
2023/02/26 04:46:19;;;;;;;20.10;19.10;;;;;;;;;;5143533;27;20226;-85
2023/02/26 04:48:46;;;;;;;21.00;19.80;;;;;;;;;;5143390;27;20194;-85
2023/02/26 04:51:13;;;;;;;21.48;20.17;;;;;;;;;;5143159;27;20224;-85
2023/02/26 04:53:40;;;;;;;20.55;19.45;;;;;;;;;;5143012;27;20628;-86
2023/02/26 04:56:07;;;;;;;21.58;20.30;;;;;;;;;;5143790;27;20214;-85
2023/02/26 04:58:34;;;;;;;21.00;19.70;;;;;;;;;;5144156;27;20202;-85
2023/02/26 05:01:01;;;;;;;20.80;19.60;;;;;;;;;;5144173;27;20202;-85
2023/02/26 05:03:29;;;;;;;22.00;20.20;;;;;;;;;;5143076;27;20201;-85
2023/02/26 05:05:56;;;;;;;21.48;20.17;;;;;;;;;;5143201;27;20234;-85
2023/02/26 05:08:24;;;;;;;21.48;20.05;;;;;;;;;;5144093;27;20197;-85
2023/02/26 05:10:51;;;;;;;20.77;19.67;;;;;;;;;;5143948;27;20228;-84
2023/02/26 05:13:18;;;;;;;21.23;20.02;;;;;;;;;;5143636;27;20212;-84
2023/02/26 05:15:45;;;;;;;20.95;19.65;;;;;;;;;;5144122;27;20234;-85
2023/02/26 05:18:12;;;;;;;20.75;19.65;;;;;;;;;;5143810;27;20195;-85
2023/02/26 05:20:41;;;;;;;20.77;19.67;;;;;;;;;;5143908;27;20202;-85
2023/02/26 05:23:08;;;;;;;20.88;19.40;;;;;;;;;;5144412;27;20265;-84
2023/02/26 05:25:35;;;;;;;20.95;19.85;;;;;;;;;;5144199;27;20234;-84
2023/02/26 05:28:02;;;;;;;20.23;19.23;;;;;;;;;;5145334;27;20200;-85
2023/02/26 05:30:29;;;;;;;22.40;21.10;;;;;;;;;;5144497;27;20199;-85
2023/02/26 05:32:56;;;;;;;20.08;18.98;;;;;;;;;;5143977;27;20210;-85
2023/02/26 05:35:23;;;;;;;20.52;19.33;;;;;;;;;;5145222;27;20221;-84
2023/02/26 05:37:51;;;;;;;21.08;19.55;;;;;;;;;;5145134;27;20197;-84
2023/02/26 05:40:18;;;;;;;20.77;19.50;;;;;;;;;;5149557;27;20231;-85
2023/02/26 05:42:45;;;;;;;21.00;19.75;;;;;;;;;;5152712;27;20251;-85
2023/02/26 05:45:12;;;;;;;20.40;19.30;;;;;;;;;;5152050;27;20229;-85
2023/02/26 05:47:39;;;;;;;20.27;19.02;;;;;;;;;;5153468;27;20198;-85
2023/02/26 05:50:06;;;;;;;20.23;19.13;;;;;;;;;;5152751;27;20267;-84
2023/02/26 05:52:34;;;;;;;20.65;19.30;;;;;;;;;;5151257;27;20193;-85
2023/02/26 05:55:02;;;;;;;22.30;20.83;;;;;;;;;;5143501;27;20612;-84
2023/02/26 05:57:29;;;;;;;21.45;20.17;;;;;;;;;;5143361;27;20259;-85
2023/02/26 05:59:56;;;;;;;21.02;19.73;;;;;;;;;;5144379;27;20233;-85
2023/02/26 06:02:23;;;;;;;21.20;20.00;;;;;;;;;;5146090;27;20238;-85
2023/02/26 06:04:50;;;;;;;21.73;20.23;;;;;;;;;;5152827;27;20326;-85
2023/02/26 06:07:17;;;;;;;21.25;19.85;;;;;;;;;;5151319;27;20306;-85
2023/02/26 06:09:44;;;;;;;21.52;20.10;;;;;;;;;;5153013;27;20202;-84
2023/02/26 06:12:12;;;;;;;20.67;19.48;;;;;;;;;;5151709;27;20201;-84
2023/02/26 06:14:39;;;;;;;21.92;20.73;;;;;;;;;;5152847;27;20206;-85
2023/02/26 06:17:06;;;;;;;20.88;19.67;;;;;;;;;;5151548;27;20278;-86
2023/02/26 06:19:34;;;;;;;22.20;20.42;;;;;;;;;;5152590;27;20654;-84
2023/02/26 06:22:01;;;;;;;22.30;20.90;;;;;;;;;;5142198;27;20221;-85
2023/02/26 06:24:28;;;;;;;21.35;20.02;;;;;;;;;;5140186;27;20207;-85
2023/02/26 06:26:55;;;;;;;21.55;20.35;;;;;;;;;;5138747;27;20233;-85
2023/02/26 06:29:23;;;;;;;21.25;19.60;;;;;;;;;;5140253;28;20207;-85
2023/02/26 06:31:50;;;;;;;21.65;20.10;;;;;;;;;;5139869;28;20201;-85
2023/02/26 06:34:17;;;;;;;21.13;19.88;;;;;;;;;;5136677;28;20206;-86
2023/02/26 06:36:44;;;;;;;21.58;20.35;;;;;;;;;;5135381;28;20715;-87
2023/02/26 06:39:12;;;;;;;21.70;20.60;;;;;;;;;;5135263;28;20193;-87
2023/02/26 06:41:39;;;;;;;20.85;19.75;;;;;;;;;;5138720;27;20208;-85
2023/02/26 06:44:06;;;;;;;20.70;19.50;;;;;;;;;;5139794;28;20708;-85
2023/02/26 06:46:35;;;;;;;20.45;19.35;;;;;;;;;;5138178;28;20281;-87
2023/02/26 06:49:02;;;;;;;20.48;19.17;;;;;;;;;;5135586;28;20283;-87
2023/02/26 06:51:29;;;;;;;21.45;20.00;;;;;;;;;;5134870;27;20336;-87
2023/02/26 06:53:56;;;;;;;20.17;18.80;;;;;;;;;;5135297;28;20201;-87
2023/02/26 06:56:23;;;;;;;20.33;19.20;;;;;;;;;;5135081;28;20273;-87
2023/02/26 06:58:50;;;;;;;21.00;19.58;;;;;;;;;;5135213;28;20205;-87
2023/02/26 07:01:17;;;;;;;21.02;19.67;;;;;;;;;;5133987;27;20206;-88
2023/02/26 07:03:46;;;;;;;20.55;19.02;;;;;;;;;;5135178;28;20197;-86
2023/02/26 07:06:13;;;;;;;20.70;19.50;;;;;;;;;;5134822;28;20701;-87
2023/02/26 07:08:40;;;;;;;20.63;19.13;;;;;;;;;;5135295;28;20199;-87
2023/02/26 07:11:08;;;;;;;21.48;20.17;;;;;;;;;;5135460;28;20257;-87
2023/02/26 07:13:35;;;;;;;19.92;18.92;;;;;;;;;;5134566;27;20296;-86
2023/02/26 07:16:02;;;;;;;19.83;18.73;;;;;;;;;;5136829;27;20221;-87
2023/02/26 07:18:29;;;;;;;20.38;19.20;;;;;;;;;;5138944;27;20205;-87
2023/02/26 07:20:58;;;;;;;20.45;18.98;;;;;;;;;;5138940;27;20673;-87
2023/02/26 07:23:25;;;;;;;20.00;19.00;;;;;;;;;;5138538;27;20206;-87
2023/02/26 07:26:19;;;;;;;19.48;18.40;;;;;;;;;;5138481;27;20270;-87
2023/02/26 07:28:46;;;;;;;19.23;17.90;;;;;;;;;;5139049;27;20548;-86
2023/02/26 07:31:15;;;;;;;20.15;18.70;;;;;;;;;;5137964;27;20254;-88
2023/02/26 07:33:42;;;;;;;19.92;18.83;;;;;;;;;;5138664;27;20190;-87
2023/02/26 07:36:10;;;;;;;21.27;19.98;;;;;;;;;;5138122;27;20308;-87
2023/02/26 07:38:37;;;;;;;19.80;18.80;;;;;;;;;;5138590;27;20213;-86
2023/02/26 07:41:05;;;;;;;19.90;18.90;;;;;;;;;;5138535;27;20240;-86
2023/02/26 07:43:32;;;;;;;21.05;19.85;;;;;;;;;;5138551;27;20205;-86
2023/02/26 07:45:58;;;;;;;20.55;19.45;;;;;;;;;;5137420;27;20256;-86
2023/02/26 07:48:26;;;;;;;21.45;20.35;;;;;;;;;;5138625;27;20198;-87
2023/02/26 07:50:53;;;;;;;21.35;20.15;;;;;;;;;;5139170;27;20258;-87
2023/02/26 07:53:22;;;;;;;20.80;19.70;;;;;;;;;;5137419;27;20729;-88
2023/02/26 07:55:49;;;;;;;20.95;19.85;;;;;;;;;;5141508;27;20630;-86
2023/02/26 07:58:16;;;;;;;20.70;19.60;;;;;;;;;;5141293;27;20212;-86
2023/02/26 08:00:43;;;;;;;22.00;20.70;;;;;;;;;;5138546;27;20247;-87
2023/02/26 08:03:10;;;;;;;21.35;20.25;;;;;;;;;;5138481;27;20275;-86
2023/02/26 08:05:37;;;;;;;21.70;20.40;;;;;;;;;;5137623;27;20270;-87
2023/02/26 08:08:04;;;;;;;21.75;20.45;;;;;;;;;;5138058;27;20187;-87
2023/02/26 08:10:32;;;;;;;20.67;19.48;;;;;;;;;;5144278;27;20207;-87
2023/02/26 08:12:59;;;;;;;21.33;20.23;;;;;;;;;;5143291;27;20726;-87
2023/02/26 08:15:28;;;;;;;20.65;19.55;;;;;;;;;;5144150;27;20227;-87
2023/02/26 08:17:55;;;;;;;21.10;20.00;;;;;;;;;;5144152;27;20227;-87
2023/02/26 08:20:22;;;;;;;22.25;21.05;;;;;;;;;;5142755;27;20601;-87
2023/02/26 08:22:50;;;;;;;21.10;19.75;;;;;;;;;;5142732;27;20251;-87
2023/02/26 08:25:17;;;;;;;19.73;18.75;;;;;;;;;;5141917;27;20436;-86
2023/02/26 08:27:46;;;;;;;20.88;19.70;;;;;;;;;;5140265;27;20204;-88
2023/02/26 08:30:13;;;;;;;20.95;19.50;;;;;;;;;;5138429;27;20208;-88
2023/02/26 08:32:41;;;;;;;20.33;19.13;;;;;;;;;;5136884;27;20659;-88
2023/02/26 08:35:08;;;;;;;20.30;19.25;;;;;;;;;;5137251;27;20558;-88
2023/02/26 08:37:35;;;;;;;20.80;19.50;;;;;;;;;;5137293;27;20202;-88
2023/02/26 08:40:03;;;;;;;20.65;19.55;;;;;;;;;;5138113;27;20205;-86
2023/02/26 08:42:30;;;;;;;19.90;18.80;;;;;;;;;;5136782;27;20200;-88
2023/02/26 08:44:59;;;;;;;20.77;19.48;;;;;;;;;;5134475;27;20209;-87
2023/02/26 08:47:26;;;;;;;20.95;19.83;;;;;;;;;;5118767;28;20281;-85
2023/02/26 08:49:53;;;;;;;20.45;19.45;;;;;;;;;;5121073;28;20203;-86
2023/02/26 08:52:20;;;;;;;19.88;18.88;;;;;;;;;;5118533;28;20231;-86
2023/02/26 08:54:47;;;;;;;20.75;19.35;;;;;;;;;;5119118;28;20249;-84
2023/02/26 08:57:14;;;;;;;20.05;18.95;;;;;;;;;;5120095;28;20293;-85
2023/02/26 08:59:41;;;;;;;21.75;20.38;;;;;;;;;;5120901;28;20201;-86
2023/02/26 09:02:10;;;;;;;21.73;20.48;;;;;;;;;;5118239;28;20217;-85
2023/02/26 09:04:37;;;;;;;21.27;19.98;;;;;;;;;;5118758;28;20560;-86
2023/02/26 09:07:04;;;;;;;21.45;20.13;;;;;;;;;;5119863;27;20255;-85
2023/02/26 09:09:31;;;;;;;21.00;19.90;;;;;;;;;;5120393;28;20199;-84
2023/02/26 09:11:58;;;;;;;20.88;19.77;;;;;;;;;;5118795;28;20262;-86
2023/02/26 09:14:25;;;;;;;21.88;20.17;;;;;;;;;;5120709;28;20269;-85
2023/02/26 09:16:53;;;;;;;21.17;20.08;;;;;;;;;;5120232;28;20221;-84
2023/02/26 09:19:21;;;;;;;20.50;19.30;;;;;;;;;;5120391;28;20245;-83
2023/02/26 09:21:48;;;;;;;21.20;19.55;;;;;;;;;;5119881;28;20587;-85
2023/02/26 09:24:15;;;;;;;20.63;19.52;;;;;;;;;;5120788;28;20635;-85
2023/02/26 09:26:42;;;;;;;21.10;19.70;;;;;;;;;;5120159;28;20751;-85
2023/02/26 09:29:10;;;;;;;20.98;19.77;;;;;;;;;;5120424;28;20202;-84
2023/02/26 09:31:37;;;;;;;20.50;19.50;;;;;;;;;;5120390;28;21096;-85
2023/02/26 09:34:04;;;;;;;21.75;20.45;;;;;;;;;;5120600;28;20751;-84
2023/02/26 09:36:32;;;;;;;21.15;19.95;;;;;;;;;;5119590;28;20759;-85
2023/02/26 09:38:59;;;;;;;21.40;20.15;;;;;;;;;;5118708;28;20209;-87
2023/02/26 09:41:28;;;;;;;21.48;20.38;;;;;;;;;;5116243;28;20201;-87
2023/02/26 09:44:17;;;;;;;21.45;20.25;;;;;;;;;;5118443;28;20198;-82
2023/02/26 09:46:48;;;;;;;21.75;20.40;;;;;;;;;;5119179;28;20236;-86
2023/02/26 09:49:22;;;;;;;21.75;20.60;;;;;;;;;;5118685;27;20592;-87
2023/02/26 09:51:52;;;;;;;22.30;21.00;;;;;;;;;;5136120;27;20594;-88
2023/02/26 09:54:21;;;;;;;21.38;20.23;;;;;;;;;;5136719;27;20197;-86
2023/02/26 09:56:50;;;;;;;21.02;19.85;;;;;;;;;;5137609;27;20295;-88
2023/02/26 09:59:17;;;;;;;23.08;21.58;;;;;;;;;;5136326;27;20549;-88
2023/02/26 10:01:47;;;;;;;22.45;21.15;;;;;;;;;;5136629;27;20241;-89
2023/02/26 10:04:17;;;;;;;26.40;21.17;;;;;;;;;;5137273;27;20231;-88
2023/02/26 10:06:49;;;;;;;21.33;20.05;;;;;;;;;;5137408;27;20615;-89
2023/02/26 10:09:23;;;;;;;22.77;21.48;;;;;;;;;;5137268;27;20238;-88
2023/02/26 10:11:53;;;;;;;22.65;21.25;;;;;;;;;;5136123;27;20211;-87
2023/02/26 10:14:23;;;;;;;21.77;20.55;;;;;;;;;;5136181;27;20204;-87
2023/02/26 10:16:52;;;;;;;23.25;21.75;;;;;;;;;;5136172;27;20263;-87
2023/02/26 10:19:21;;;;;;;21.95;20.75;;;;;;;;;;5136256;27;20211;-87
2023/02/26 10:21:50;;;;;;;22.48;21.20;;;;;;;;;;5134871;27;20695;-88
2023/02/26 10:24:22;;;;;;;21.63;20.25;;;;;;;;;;5136608;27;20201;-88
2023/02/26 10:26:51;;;;;;;22.08;20.50;;;;;;;;;;5136337;27;20224;-88
2023/02/26 10:29:22;;;;;;;22.58;21.13;;;;;;;;;;5136210;28;20201;-87
2023/02/26 10:31:56;;;;;;;22.58;20.98;;;;;;;;;;5136175;28;20185;-88
2023/02/26 10:34:25;;;;;;;21.95;20.65;;;;;;;;;;5136040;27;20263;-88
2023/02/26 10:36:58;;;;;;;21.30;20.10;;;;;;;;;;5135924;28;20250;-88
2023/02/26 10:39:31;;;;;;;23.23;21.85;;;;;;;;;;5139524;28;20181;-84
2023/02/26 10:42:00;;;;;;;21.48;20.27;;;;;;;;;;5139941;28;20231;-85
2023/02/26 10:44:30;;;;;;;21.63;20.33;;;;;;;;;;5140223;27;20197;-88
2023/02/26 10:47:01;;;;;;;21.80;20.50;;;;;;;;;;5138016;28;20227;-87
2023/02/26 10:49:37;;;;;;;21.35;20.13;;;;;;;;;;5141662;27;20237;-85
2023/02/26 10:52:11;;;;;;;19.80;18.60;;;;;;;;;;5144080;27;20248;-85
2023/02/26 10:54:43;;;;;;;20.48;19.27;;;;;;;;;;5143292;27;20338;-84
2023/02/26 10:57:16;;;;;;;20.48;19.38;;;;;;;;;;5142165;27;20276;-90
2023/02/26 10:59:43;;;;;;;19.90;18.80;;;;;;;;;;5142065;27;20254;-88
2023/02/26 11:02:18;;;;;;;20.35;19.15;;;;;;;;;;5145878;27;20601;-82
2023/02/26 11:04:45;;;;;;;20.45;19.10;;;;;;;;;;5145092;27;20606;-89
2023/02/26 11:07:13;;;;;;;19.73;18.63;;;;;;;;;;5140800;27;20223;-87
2023/02/26 11:09:45;;;;;;;21.02;19.83;;;;;;;;;;5141055;27;20207;-87
2023/02/26 11:12:14;;;;;;;21.42;20.23;;;;;;;;;;5142316;27;20180;-82
2023/02/26 11:14:42;;;;;;;21.13;19.73;;;;;;;;;;5144400;27;20239;-85
2023/02/26 11:17:12;;;;;;;21.00;19.70;;;;;;;;;;5147123;27;20648;-84
2023/02/26 11:19:41;;;;;;;21.73;20.42;;;;;;;;;;5147717;27;20185;-84
2023/02/26 11:22:09;;;;;;;20.90;19.70;;;;;;;;;;5147305;27;20204;-85
2023/02/26 11:24:39;;;;;;;20.70;19.50;;;;;;;;;;5146299;27;20214;-85
2023/02/26 11:27:12;;;;;;;21.83;20.48;;;;;;;;;;5143859;27;20220;-87
2023/02/26 11:29:40;;;;;;;20.75;19.55;;;;;;;;;;5139845;27;20192;-79
2023/02/26 11:32:08;;;;;;;21.92;20.48;;;;;;;;;;5138893;27;20253;-78
2023/02/26 11:34:35;;;;;;;21.77;20.58;;;;;;;;;;5137056;27;20205;-77
2023/02/26 11:37:02;;;;;;;20.75;19.45;;;;;;;;;;5137699;27;20213;-78
2023/02/26 11:39:30;;;;;;;20.10;18.90;;;;;;;;;;5137582;27;20273;-79
2023/02/26 11:41:58;;;;;;;21.02;19.73;;;;;;;;;;5138735;27;20203;-77
2023/02/26 11:44:31;;;;;;;20.75;19.45;;;;;;;;;;5136943;27;20667;-78
2023/02/26 11:46:59;;;;;;;21.65;20.35;;;;;;;;;;5137373;27;20225;-77
2023/02/26 11:49:27;;;;;;;21.58;20.27;;;;;;;;;;5137783;27;20204;-78
2023/02/26 11:52:03;;;;;;;20.98;19.67;;;;;;;;;;5138625;27;20227;-80
2023/02/26 11:54:30;;;;;;;21.25;20.05;;;;;;;;;;5139612;27;20189;-79
2023/02/26 11:57:01;;;;;;;21.17;19.73;;;;;;;;;;5137273;27;20243;-78
2023/02/26 11:59:31;;;;;;;21.38;20.08;;;;;;;;;;5137514;27;20226;-78
2023/02/26 12:02:02;;;;;;;21.10;19.90;;;;;;;;;;5138473;27;20184;-80
2023/02/26 12:04:32;;;;;;;21.98;20.58;;;;;;;;;;5139814;27;20217;-80
2023/02/26 12:06:59;;;;;;;21.15;19.65;;;;;;;;;;5139591;27;20224;-81
2023/02/26 12:09:27;;;;;;;21.33;20.02;;;;;;;;;;5139577;27;20551;-78
2023/02/26 12:12:04;;;;;;;21.30;20.10;;;;;;;;;;5136113;27;20936;-78
2023/02/26 12:14:54;;;;;;;21.83;20.50;;;;;;;;;;5136689;27;20208;-78
2023/02/26 12:17:32;;;;;;;21.40;20.10;;;;;;;;;;5137065;27;20181;-77
2023/02/26 12:20:06;;;;;;;21.15;19.95;;;;;;;;;;5146475;27;20261;-82
2023/02/26 12:22:43;;;;;;;21.00;19.70;;;;;;;;;;5144800;27;20196;-83
2023/02/26 12:25:20;;;;;;;20.73;19.52;;;;;;;;;;5145585;27;20248;-82
2023/02/26 12:27:58;;;;;;;20.30;19.10;;;;;;;;;;5146991;27;20265;-82
2023/02/26 12:30:34;;;;;;;20.65;19.35;;;;;;;;;;5145089;27;20201;-81
2023/02/26 12:33:09;;;;;;;20.85;19.65;;;;;;;;;;5146159;27;20192;-84
2023/02/26 12:35:48;;;;;;;21.40;20.05;;;;;;;;;;5144335;27;20224;-81
2023/02/26 12:38:29;;;;;;;21.02;19.73;;;;;;;;;;5145280;27;20200;-80
2023/02/26 12:41:06;;;;;;;21.23;19.92;;;;;;;;;;5145440;27;20267;-81
2023/02/26 12:43:36;;;;;;;21.25;20.05;;;;;;;;;;5144959;27;20189;-81
2023/02/26 12:46:09;;;;;;;21.65;20.35;;;;;;;;;;5144022;27;20254;-81
2023/02/26 12:48:44;;;;;;;22.20;20.80;;;;;;;;;;5146359;27;20230;-81
2023/02/26 12:51:15;;;;;;;23.30;21.63;;;;;;;;;;5146234;27;20205;-81
2023/02/26 12:53:46;;;;;;;21.35;20.15;;;;;;;;;;5145790;27;20238;-82
2023/02/26 12:56:24;;;;;;;22.17;20.88;;;;;;;;;;5144787;27;20226;-81
2023/02/26 12:59:04;;;;;;;22.48;21.17;;;;;;;;;;5145475;27;20185;-81
2023/02/26 13:01:53;;;;;;;21.85;20.45;;;;;;;;;;5145189;27;20200;-82
2023/02/26 13:04:44;;;;;;;22.27;20.85;;;;;;;;;;5138813;27;20258;-81
2023/02/26 13:07:17;;;;;;;22.45;21.15;;;;;;;;;;5144758;27;20185;-81
2023/02/26 13:09:54;;;;;;;22.55;21.25;;;;;;;;;;5145118;27;20270;-82
2023/02/26 13:12:28;;;;;;;21.83;20.52;;;;;;;;;;5145029;27;20308;-82
2023/02/26 13:14:58;;;;;;;21.58;20.38;;;;;;;;;;5144493;27;20222;-81
2023/02/26 13:17:28;;;;;;;22.15;20.80;;;;;;;;;;5144590;27;20249;-81
2023/02/26 13:19:56;;;;;;;22.42;21.13;;;;;;;;;;5144709;27;20246;-81
2023/02/26 13:22:27;;;;;;;23.05;21.45;;;;;;;;;;5143968;27;20200;-81
2023/02/26 13:24:56;;;;;;;22.17;20.35;;;;;;;;;;5144336;27;20193;-81
2023/02/26 13:27:25;;;;;;;21.50;20.30;;;;;;;;;;5144912;27;20250;-82
2023/02/26 13:29:54;;;;;;;21.50;20.27;;;;;;;;;;5145258;27;20197;-81
2023/02/26 13:32:23;;;;;;;21.50;20.10;;;;;;;;;;5143284;27;20212;-81
2023/02/26 13:34:53;;;;;;;21.70;20.40;;;;;;;;;;5143925;27;20265;-82
2023/02/26 13:37:23;;;;;;;21.80;20.50;;;;;;;;;;5144629;27;20212;-81
2023/02/26 13:39:56;;;;;;;21.67;20.35;;;;;;;;;;5144730;27;20608;-81
2023/02/26 13:42:28;;;;;;;22.55;21.25;;;;;;;;;;5144199;27;20544;-81
2023/02/26 13:45:03;;;;;;;21.58;20.27;;;;;;;;;;5143868;27;20203;-82
2023/02/26 13:47:41;;;;;;;21.75;20.15;;;;;;;;;;5144710;27;20300;-81
2023/02/26 13:50:17;;;;;;;21.77;20.27;;;;;;;;;;5144504;27;20185;-81
2023/02/26 13:52:51;;;;;;;20.65;19.45;;;;;;;;;;5143970;27;20189;-81
2023/02/26 13:55:36;;;;;;;20.70;19.50;;;;;;;;;;5144259;27;20230;-81
2023/02/26 13:58:17;;;;;;;21.48;20.17;;;;;;;;;;5143734;27;20195;-81
2023/02/26 14:00:47;;;;;;;20.70;19.50;;;;;;;;;;5144072;27;20187;-81
2023/02/26 14:03:30;;;;;;;21.20;20.00;;;;;;;;;;5143408;27;20664;-82
2023/02/26 14:06:08;;;;;;;21.90;20.70;;;;;;;;;;5143509;27;20270;-81
2023/02/26 14:08:45;;;;;;;22.58;21.30;;;;;;;;;;5144126;27;20209;-81
2023/02/26 14:11:31;;;;;;;22.55;21.25;;;;;;;;;;5142963;27;20212;-81
2023/02/26 14:14:12;;;;;;;21.10;19.80;;;;;;;;;;5143612;27;20257;-81
2023/02/26 14:16:41;;;;;;;20.85;19.75;;;;;;;;;;5143783;27;20220;-81
2023/02/26 14:19:20;;;;;;;21.75;20.45;;;;;;;;;;5144040;27;20200;-81
2023/02/26 14:21:49;;;;;;;21.70;20.50;;;;;;;;;;5142883;27;20229;-80
2023/02/26 14:24:19;;;;;;;22.10;20.90;;;;;;;;;;5142188;27;20226;-81
2023/02/26 14:26:47;;;;;;;21.63;20.42;;;;;;;;;;5143960;27;20231;-81
2023/02/26 14:29:17;;;;;;;21.50;20.30;;;;;;;;;;5143050;27;20217;-81
2023/02/26 14:31:51;;;;;;;21.40;20.25;;;;;;;;;;5144068;28;20197;-81